Time;durP1;ratioP1;P1;durP2;ratioP2;P2;SDS_P1;SDS_P2;PMS_P1;PMS_P2;Temp;Humidity;BMP_temperature;BMP_pressure;BME280_temperature;BME280_humidity;BME280_pressure;Samples;Min_cycle;Max_cycle;Signal;HPM_P1;HPM_P2
2021/03/12 00:00:48;;;;;;;25.20;12.37;;;;;;;-2.39;59.24;100924.00;1681860;83;21238;-73
2021/03/12 00:03:20;;;;;;;19.57;11.85;;;;;;;-2.38;59.07;100919.09;1686562;84;21673;-71
2021/03/12 00:05:51;;;;;;;24.85;12.55;;;;;;;-2.40;59.06;100909.30;1685745;83;21657;-72
2021/03/12 00:08:29;;;;;;;22.35;13.03;;;;;;;-2.41;58.95;100907.15;1686929;83;21155;-72
2021/03/12 00:10:57;;;;;;;22.60;12.82;;;;;;;-2.40;59.07;100902.27;1683123;83;21222;-72
2021/03/12 00:13:25;;;;;;;26.27;12.90;;;;;;;-2.40;59.12;100897.53;1687593;83;21218;-73
2021/03/12 00:15:54;;;;;;;23.90;11.60;;;;;;;-2.41;59.02;100891.45;1687458;84;21277;-72
2021/03/12 00:18:28;;;;;;;20.32;12.80;;;;;;;-2.40;58.86;100893.11;1688423;83;21707;-73
2021/03/12 00:20:56;;;;;;;17.52;10.93;;;;;;;-2.39;58.71;100898.66;1686437;83;21180;-71
2021/03/12 00:23:24;;;;;;;22.60;11.05;;;;;;;-2.41;58.73;100895.38;1688209;83;21145;-71
2021/03/12 00:25:52;;;;;;;20.50;11.90;;;;;;;-2.41;58.72;100893.25;1685693;83;21246;-72
2021/03/12 00:28:20;;;;;;;20.72;11.63;;;;;;;-2.42;58.76;100891.63;1688916;83;21298;-72
2021/03/12 00:30:48;;;;;;;24.72;11.90;;;;;;;-2.43;58.79;100893.44;1650600;85;21204;-71
2021/03/12 00:33:17;;;;;;;20.25;11.05;;;;;;;-2.41;58.89;100885.41;1643475;85;21196;-72
2021/03/12 00:35:45;;;;;;;19.32;10.20;;;;;;;-2.40;58.85;100881.83;1646099;85;21188;-72
2021/03/12 00:38:14;;;;;;;18.37;10.65;;;;;;;-2.39;58.71;100884.77;1642138;85;21184;-71
2021/03/12 00:40:57;;;;;;;24.47;10.68;;;;;;;-2.40;58.73;100885.76;1621069;88;22292;-72
2021/03/12 00:43:27;;;;;;;18.23;9.93;;;;;;;-2.41;58.75;100868.41;1617307;87;21650;-72
2021/03/12 00:46:00;;;;;;;15.70;9.95;;;;;;;-2.41;58.77;100858.75;1671191;83;21546;-72
2021/03/12 00:48:29;;;;;;;15.50;9.78;;;;;;;-2.41;58.69;100857.45;1662042;84;21525;-71
2021/03/12 00:50:57;;;;;;;17.48;10.13;;;;;;;-2.41;58.75;100857.94;1688970;83;21159;-72
2021/03/12 00:53:27;;;;;;;19.12;10.53;;;;;;;-2.39;58.67;100866.45;1686695;83;21301;-70
2021/03/12 00:55:55;;;;;;;17.62;10.45;;;;;;;-2.39;58.63;100865.95;1687377;83;21654;-70
2021/03/12 00:58:24;;;;;;;16.02;8.83;;;;;;;-2.38;58.73;100860.23;1690153;82;21232;-70
2021/03/12 01:00:53;;;;;;;16.85;9.75;;;;;;;-2.38;58.69;100847.16;1682772;83;21598;-70
2021/03/12 01:03:23;;;;;;;16.80;10.08;;;;;;;-2.39;58.66;100842.91;1677563;83;21218;-70
2021/03/12 01:05:53;;;;;;;20.15;9.25;;;;;;;-2.40;58.58;100834.75;1686521;83;21381;-69
2021/03/12 01:08:23;;;;;;;14.18;8.90;;;;;;;-2.38;58.61;100842.73;1686764;83;21579;-72
2021/03/12 01:10:51;;;;;;;15.28;9.23;;;;;;;-2.39;58.65;100833.76;1687500;83;21649;-70
2021/03/12 01:13:19;;;;;;;17.15;8.88;;;;;;;-2.39;58.49;100824.60;1683913;83;21234;-71
2021/03/12 01:15:48;;;;;;;15.18;8.75;;;;;;;-2.39;58.37;100819.38;1682350;83;21083;-71
2021/03/12 01:18:18;;;;;;;15.63;8.60;;;;;;;-2.39;58.41;100808.91;1683395;83;21206;-72
2021/03/12 01:20:46;;;;;;;16.32;9.90;;;;;;;-2.37;58.37;100801.69;1688241;83;21581;-71
2021/03/12 01:23:16;;;;;;;18.15;9.15;;;;;;;-2.37;58.34;100791.23;1687465;83;21235;-71
2021/03/12 01:25:45;;;;;;;15.75;8.83;;;;;;;-2.36;58.39;100778.49;1687060;83;21190;-71
2021/03/12 01:28:15;;;;;;;13.65;8.43;;;;;;;-2.36;58.19;100782.42;1685154;83;21736;-70
2021/03/12 01:30:46;;;;;;;15.98;9.70;;;;;;;-2.36;58.16;100787.65;1663565;84;21396;-70
2021/03/12 01:33:26;;;;;;;16.37;9.50;;;;;;;-2.31;58.30;100774.05;1791588;77;22825;-70
2021/03/12 01:35:55;;;;;;;16.07;8.88;;;;;;;-2.36;58.36;100785.84;1794606;78;22198;-71
2021/03/12 01:38:23;;;;;;;18.35;9.18;;;;;;;-2.38;58.23;100774.72;1800889;79;21347;-71
2021/03/12 01:40:52;;;;;;;15.88;9.28;;;;;;;-2.38;57.93;100789.11;1794548;79;21164;-70
2021/03/12 01:43:21;;;;;;;17.30;9.83;;;;;;;-2.38;57.93;100789.11;1766130;79;21204;-70
2021/03/12 01:45:51;;;;;;;17.73;10.00;;;;;;;-2.40;58.14;100799.44;1794671;78;21188;-71
2021/03/12 01:48:23;;;;;;;19.77;9.93;;;;;;;-2.41;58.20;100810.86;1794852;78;21176;-71
2021/03/12 01:50:56;;;;;;;16.60;9.30;;;;;;;-2.44;58.12;100800.73;1777970;79;21460;-71
2021/03/12 01:53:25;;;;;;;16.77;9.20;;;;;;;-2.49;58.27;100815.63;1775115;80;22762;-70
2021/03/12 01:55:54;;;;;;;19.90;9.00;;;;;;;-2.53;58.21;100817.41;1788944;79;21152;-71
2021/03/12 01:58:23;;;;;;;14.60;8.60;;;;;;;-2.58;58.30;100816.60;1771230;80;21172;-70
2021/03/12 02:00:53;;;;;;;14.85;8.60;;;;;;;-2.62;58.44;100795.20;1793734;79;21160;-70
2021/03/12 02:03:27;;;;;;;13.50;8.33;;;;;;;-2.64;58.61;100791.92;1789803;78;21621;-72
2021/03/12 02:06:00;;;;;;;14.75;8.90;;;;;;;-2.66;58.64;100786.06;1768487;79;21200;-71
2021/03/12 02:08:29;;;;;;;16.95;9.10;;;;;;;-2.68;58.59;100786.70;1776742;80;21699;-70
2021/03/12 02:10:58;;;;;;;11.68;7.70;;;;;;;-2.69;58.65;100769.39;1768221;80;21200;-70
2021/03/12 02:13:39;;;;;;;16.35;8.70;;;;;;;-2.67;58.75;100755.64;1765835;80;21156;-70
2021/03/12 02:16:24;;;;;;;16.77;9.08;;;;;;;-2.66;58.83;100759.91;1772203;80;21208;-71
2021/03/12 02:19:10;;;;;;;15.63;8.55;;;;;;;-2.66;58.84;100750.76;1741732;81;21192;-70
2021/03/12 02:21:41;;;;;;;16.40;9.20;;;;;;;-2.67;58.79;100761.36;1741559;81;21200;-70
2021/03/12 02:24:30;;;;;;;16.23;9.08;;;;;;;-2.65;58.86;100758.11;1747687;80;21191;-71
2021/03/12 02:27:06;;;;;;;17.75;9.30;;;;;;;-2.64;59.00;100738.81;1755822;79;21098;-71
2021/03/12 02:29:45;;;;;;;21.97;9.73;;;;;;;-2.62;58.88;100742.09;1752228;81;21484;-69
2021/03/12 02:32:17;;;;;;;19.80;9.95;;;;;;;-2.63;58.80;100743.89;1772109;79;21193;-70
2021/03/12 02:34:48;;;;;;;17.98;8.63;;;;;;;-2.64;58.94;100760.55;1770776;80;21173;-70
2021/03/12 02:37:18;;;;;;;18.40;9.78;;;;;;;-2.63;58.88;100750.92;1759934;81;21157;-70
2021/03/12 02:39:55;;;;;;;16.45;9.30;;;;;;;-2.66;58.79;100749.45;1738762;81;21546;-69
2021/03/12 02:42:25;;;;;;;14.90;8.08;;;;;;;-2.65;58.91;100728.84;1763088;79;21293;-71
2021/03/12 02:44:54;;;;;;;16.90;9.25;;;;;;;-2.66;58.80;100724.61;1743724;80;21711;-70
2021/03/12 02:47:28;;;;;;;21.75;9.93;;;;;;;-2.68;58.77;100705.65;1736731;80;21200;-70
2021/03/12 02:49:58;;;;;;;13.85;9.18;;;;;;;-2.69;58.84;100711.87;1748258;81;21340;-69
2021/03/12 02:52:27;;;;;;;16.77;9.83;;;;;;;-2.69;59.08;100709.25;1767593;80;21132;-70
2021/03/12 02:54:55;;;;;;;14.38;8.58;;;;;;;-2.70;58.99;100705.02;1770477;79;22156;-71
2021/03/12 02:57:24;;;;;;;17.77;9.03;;;;;;;-2.70;59.12;100725.94;1721831;80;21584;-70
2021/03/12 02:59:54;;;;;;;15.68;8.33;;;;;;;-2.73;59.39;100707.96;1750730;80;21160;-70
2021/03/12 03:02:41;;;;;;;13.20;8.13;;;;;;;-2.71;59.19;100696.83;1790327;79;22189;-70
2021/03/12 03:05:13;;;;;;;12.00;7.75;;;;;;;-2.78;59.32;100692.44;1733255;80;21187;-70
2021/03/12 03:07:46;;;;;;;14.85;8.90;;;;;;;-2.81;59.39;100700.12;1760502;80;22135;-70
2021/03/12 03:10:16;;;;;;;;;;;;;;;-2.82;59.68;100696.38;1777659;80;21765;-71
2021/03/12 03:12:46;;;;;;;16.62;8.20;;;;;;;-2.81;59.87;100689.66;1754500;80;20271;-70
2021/03/12 03:15:15;;;;;;;16.23;7.83;;;;;;;-2.84;59.86;100680.84;1756090;79;21620;-70
2021/03/12 03:17:44;;;;;;;12.13;6.83;;;;;;;-2.85;59.90;100676.11;1729665;82;21208;-71
2021/03/12 03:20:14;;;;;;;13.88;8.25;;;;;;;-2.86;59.95;100677.10;1694927;83;22204;-71
2021/03/12 03:22:44;;;;;;;11.90;5.62;;;;;;;-2.87;60.04;100678.56;1694029;83;21234;-70
2021/03/12 03:25:13;;;;;;;13.75;7.72;;;;;;;-2.87;60.14;100681.17;1674316;82;21204;-71
2021/03/12 03:27:41;;;;;;;14.83;8.13;;;;;;;-2.88;60.26;100676.94;1698481;83;21187;-71
2021/03/12 03:30:12;;;;;;;13.35;7.28;;;;;;;-2.88;60.18;100686.89;1706496;83;21220;-71
2021/03/12 03:32:41;;;;;;;12.90;7.97;;;;;;;-2.87;60.23;100666.30;1695856;83;21469;-71
2021/03/12 03:35:12;;;;;;;13.35;7.62;;;;;;;-2.86;60.34;100669.75;1676134;84;21199;-70
2021/03/12 03:37:41;;;;;;;13.30;6.83;;;;;;;-2.88;60.24;100669.09;1679145;84;21065;-71
2021/03/12 03:40:11;;;;;;;11.90;6.78;;;;;;;-2.88;60.17;100670.40;1685523;84;21861;-70
2021/03/12 03:42:42;;;;;;;14.07;7.72;;;;;;;-2.89;60.15;100670.09;1675688;84;21271;-71
2021/03/12 03:45:11;;;;;;;11.97;7.45;;;;;;;-2.89;60.19;100670.09;1672260;84;21609;-70
2021/03/12 03:47:41;;;;;;;11.60;6.17;;;;;;;-2.91;60.09;100657.66;1676738;84;21664;-71
2021/03/12 03:50:11;;;;;;;13.98;7.90;;;;;;;-2.95;59.88;100652.45;1626580;84;21135;-72
2021/03/12 03:52:40;;;;;;;12.73;7.53;;;;;;;-2.96;59.80;100652.11;1684409;84;21191;-70
2021/03/12 03:55:11;;;;;;;;;;;;;;;-2.96;59.82;100649.49;1679878;84;21164;-69
2021/03/12 03:57:40;;;;;;;11.80;7.28;;;;;;;-3.00;59.83;100646.40;1678258;84;22357;-71
2021/03/12 04:00:11;;;;;;;13.83;7.90;;;;;;;-3.05;59.84;100638.26;1683016;84;21200;-71
2021/03/12 04:02:48;;;;;;;12.28;7.35;;;;;;;-3.09;59.76;100643.50;1661070;83;21299;-71
2021/03/12 04:05:18;;;;;;;13.72;7.85;;;;;;;-3.10;59.76;100624.37;1659072;85;21212;-70
2021/03/12 04:07:47;;;;;;;10.53;6.92;;;;;;;-3.14;59.88;100624.38;1725917;81;21200;-71
2021/03/12 04:10:15;;;;;;;12.30;7.28;;;;;;;-3.15;59.86;100634.52;1701312;82;21188;-71
2021/03/12 04:12:44;;;;;;;13.98;7.67;;;;;;;-3.18;59.87;100623.58;1718993;82;21112;-70
2021/03/12 04:15:19;;;;;;;13.20;7.60;;;;;;;-3.17;59.87;100633.05;1706891;82;21172;-70
2021/03/12 04:17:47;;;;;;;13.08;7.45;;;;;;;-3.19;59.77;100637.14;1705409;82;21211;-70
2021/03/12 04:20:16;;;;;;;12.93;8.20;;;;;;;-3.19;59.61;100630.61;1717545;82;21164;-69
2021/03/12 04:22:45;;;;;;;16.25;8.00;;;;;;;-3.17;59.30;100639.58;1730302;82;21206;-70
2021/03/12 04:25:15;;;;;;;16.45;7.80;;;;;;;-3.18;59.27;100634.03;1701564;82;21210;-68
2021/03/12 04:27:43;;;;;;;11.80;7.35;;;;;;;-3.16;59.33;100654.26;1712996;82;21632;-70
2021/03/12 04:30:14;;;;;;;14.40;8.55;;;;;;;-3.14;59.40;100662.27;1737644;82;21648;-70
2021/03/12 04:32:42;;;;;;;14.00;8.65;;;;;;;-3.13;59.08;100654.74;1730489;82;21191;-69
2021/03/12 04:35:11;;;;;;;14.43;8.63;;;;;;;-3.13;59.03;100654.74;1733619;82;21195;-71
2021/03/12 04:37:39;;;;;;;14.68;8.78;;;;;;;-3.11;58.95;100640.22;1691238;83;21228;-70
2021/03/12 04:40:11;;;;;;;19.15;8.93;;;;;;;-3.12;58.70;100630.27;1648347;85;21133;-70
2021/03/12 04:42:42;;;;;;;14.83;8.38;;;;;;;-3.13;58.75;100633.84;1713932;82;21195;-70
2021/03/12 04:45:12;;;;;;;14.13;7.75;;;;;;;-3.13;58.87;100636.95;1655186;86;21527;-70
2021/03/12 04:47:42;;;;;;;14.00;8.85;;;;;;;-3.13;59.25;100644.30;1652252;86;22115;-70
2021/03/12 04:50:11;;;;;;;20.52;9.78;;;;;;;-3.12;59.37;100651.66;1731198;82;21180;-70
2021/03/12 04:52:40;;;;;;;17.60;8.93;;;;;;;-3.14;58.87;100651.81;1725021;82;21097;-70
2021/03/12 04:55:11;;;;;;;22.45;10.08;;;;;;;-3.14;58.81;100673.21;1706779;82;21200;-71
2021/03/12 04:57:40;;;;;;;17.05;9.48;;;;;;;-3.15;58.65;100675.01;1673150;84;21184;-71
2021/03/12 05:00:11;;;;;;;20.45;10.20;;;;;;;-3.15;58.49;100673.70;1671486;84;21405;-70
2021/03/12 05:02:41;;;;;;;19.37;9.88;;;;;;;-3.16;58.52;100675.16;1703874;82;21168;-71
2021/03/12 05:05:11;;;;;;;21.02;9.75;;;;;;;-3.17;58.45;100670.43;1674776;84;21161;-71
2021/03/12 05:07:39;;;;;;;20.43;10.53;;;;;;;-3.16;58.31;100666.86;1718487;82;21211;-71
2021/03/12 05:10:17;;;;;;;16.07;8.80;;;;;;;-3.16;58.39;100668.63;1706596;82;21252;-71
2021/03/12 05:12:45;;;;;;;24.50;10.68;;;;;;;-3.14;58.27;100666.67;1708170;82;21511;-72
2021/03/12 05:15:16;;;;;;;17.15;9.65;;;;;;;-3.14;58.30;100661.45;1722030;82;21220;-70
2021/03/12 05:17:46;;;;;;;17.05;8.70;;;;;;;-3.13;58.26;100664.38;1723556;82;21181;-71
2021/03/12 05:20:17;;;;;;;16.97;9.25;;;;;;;-3.13;58.17;100657.85;1721422;82;21223;-70
2021/03/12 05:22:45;;;;;;;26.57;10.55;;;;;;;-3.13;58.20;100665.19;1718993;82;21188;-70
2021/03/12 05:25:12;;;;;;;20.55;9.95;;;;;;;-3.11;58.23;100675.00;1721376;82;21378;-70
2021/03/12 05:27:40;;;;;;;19.37;9.88;;;;;;;-3.09;58.25;100674.36;1725971;81;21291;-70
2021/03/12 05:30:10;;;;;;;16.32;9.25;;;;;;;-3.09;58.21;100662.59;1720167;82;21184;-71
2021/03/12 05:32:40;;;;;;;17.90;10.05;;;;;;;-3.06;58.04;100662.73;1693881;84;21133;-71
2021/03/12 05:35:11;;;;;;;16.60;9.50;;;;;;;-3.07;58.08;100666.34;1720794;82;21503;-71
2021/03/12 05:37:38;;;;;;;21.17;10.78;;;;;;;-3.08;58.04;100659.49;1715055;81;21378;-71
2021/03/12 05:40:08;;;;;;;19.62;10.40;;;;;;;-3.09;58.05;100644.31;1726055;82;21196;-71
2021/03/12 05:42:39;;;;;;;17.00;9.05;;;;;;;-3.08;58.13;100649.04;1724583;82;21652;-71
2021/03/12 05:45:09;;;;;;;15.80;9.23;;;;;;;-3.05;58.23;100652.62;1703939;82;21172;-71
2021/03/12 05:47:39;;;;;;;14.95;8.38;;;;;;;-3.05;57.87;100613.93;1723169;82;22156;-72
2021/03/12 05:50:10;;;;;;;20.02;9.55;;;;;;;-3.06;57.42;100643.14;1724549;82;21378;-71
2021/03/12 05:52:39;;;;;;;19.23;9.50;;;;;;;-3.07;57.25;100636.29;1731979;82;21659;-71
2021/03/12 05:55:10;;;;;;;19.95;9.40;;;;;;;-3.05;57.48;100640.87;1733660;82;21209;-69
2021/03/12 05:57:39;;;;;;;17.92;9.28;;;;;;;-3.01;57.54;100644.78;1664658;85;21200;-71
2021/03/12 06:00:10;;;;;;;21.37;10.03;;;;;;;-2.98;57.35;100645.75;1688937;84;21671;-70
2021/03/12 06:02:41;;;;;;;17.60;9.63;;;;;;;-2.94;56.79;100644.44;1727075;82;21383;-71
2021/03/12 06:05:14;;;;;;;15.18;8.28;;;;;;;-2.88;56.87;100644.27;1724086;82;21187;-71
2021/03/12 06:07:43;;;;;;;18.87;9.33;;;;;;;-2.85;56.73;100641.32;1731698;82;21185;-71
2021/03/12 06:10:12;;;;;;;14.58;8.70;;;;;;;-2.79;56.68;100626.77;1725834;82;21188;-71
2021/03/12 06:12:43;;;;;;;21.07;9.38;;;;;;;-2.75;56.24;100617.11;1730158;82;21278;-71
2021/03/12 06:15:13;;;;;;;17.67;9.45;;;;;;;-2.68;55.96;100640.28;1719145;82;21374;-70
2021/03/12 06:17:45;;;;;;;16.12;9.48;;;;;;;-2.65;55.91;100643.87;1710396;82;21219;-70
2021/03/12 06:20:27;;;;;;;16.60;9.10;;;;;;;-2.56;55.88;100637.32;1653863;84;21569;-71
2021/03/12 06:22:58;;;;;;;20.70;9.83;;;;;;;-2.49;56.06;100629.12;1640183;85;21675;-69
2021/03/12 06:25:29;;;;;;;20.05;9.58;;;;;;;-2.43;55.64;100617.48;1715711;82;21132;-69
2021/03/12 06:28:19;;;;;;;17.32;9.33;;;;;;;-2.38;55.54;100616.46;1729998;82;21363;-70
2021/03/12 06:31:27;;;;;;;15.18;9.20;;;;;;;-2.32;55.32;100608.43;1721260;82;21215;-71
2021/03/12 06:34:10;;;;;;;;;;;;;;;-2.29;55.22;100602.86;1727713;82;21256;-70
2021/03/12 06:36:40;;;;;;;13.90;8.23;;;;;;;-2.24;55.14;100614.91;1728615;82;20284;-70
2021/03/12 06:39:13;;;;;;;16.15;8.95;;;;;;;-2.19;55.18;100602.14;1722177;82;21674;-71
2021/03/12 06:41:47;;;;;;;17.87;9.35;;;;;;;-2.16;54.95;100571.71;1727376;82;21378;-70
2021/03/12 06:44:33;;;;;;;15.32;8.80;;;;;;;-2.15;54.58;100592.95;1717866;82;21264;-71
2021/03/12 06:47:05;;;;;;;16.50;8.30;;;;;;;-2.17;54.85;100573.20;1730289;82;21104;-70
2021/03/12 06:49:34;;;;;;;12.78;7.40;;;;;;;-2.17;54.85;100573.20;1722245;82;21228;-70
2021/03/12 06:52:05;;;;;;;12.07;7.33;;;;;;;-2.15;55.05;100538.00;1703221;82;21520;-71
2021/03/12 06:54:36;;;;;;;;;;;;;;;-2.10;54.79;100560.24;1723449;82;21769;-72
2021/03/12 06:57:20;;;;;;;13.58;7.47;;;;;;;-2.09;54.58;100567.09;1722501;82;20284;-69
2021/03/12 07:00:14;;;;;;;15.50;8.33;;;;;;;-2.09;54.38;100571.83;1724176;81;21207;-70
2021/03/12 07:02:44;;;;;;;14.70;7.87;;;;;;;-2.01;54.51;100581.42;1722967;82;21148;-71
2021/03/12 07:05:17;;;;;;;13.18;7.78;;;;;;;-1.91;54.83;100585.46;1724137;82;21196;-71
2021/03/12 07:07:47;;;;;;;14.50;7.35;;;;;;;-1.83;54.71;100570.17;1722097;82;21278;-71
2021/03/12 07:10:20;;;;;;;15.08;7.37;;;;;;;-1.76;54.43;100581.57;1718041;82;21168;-71
2021/03/12 07:12:55;;;;;;;15.10;8.00;;;;;;;-1.69;54.15;100577.25;1719648;82;21172;-72
2021/03/12 07:15:26;;;;;;;18.42;9.10;;;;;;;-1.64;53.71;100564.96;1721659;82;21169;-71
2021/03/12 07:18:24;;;;;;;18.53;8.20;;;;;;;-1.56;53.02;100565.38;1839648;77;23835;-70
2021/03/12 07:20:54;;;;;;;20.55;9.55;;;;;;;-1.57;52.93;100561.14;1808838;77;21338;-69
2021/03/12 07:23:24;;;;;;;13.22;7.55;;;;;;;-1.53;53.28;100553.23;1807562;77;21211;-71
2021/03/12 07:25:52;;;;;;;12.75;7.40;;;;;;;-1.46;53.44;100558.08;1789632;78;21551;-71
2021/03/12 07:28:23;;;;;;;15.98;7.87;;;;;;;-1.44;53.68;100537.77;1818779;77;21214;-71
2021/03/12 07:31:17;;;;;;;17.97;8.80;;;;;;;-1.37;53.54;100517.71;1798911;78;22491;-69
2021/03/12 07:33:51;;;;;;;15.05;8.68;;;;;;;-1.40;53.61;100521.19;1788000;78;21235;-70
2021/03/12 07:36:22;;;;;;;13.95;8.10;;;;;;;-1.38;53.56;100522.64;1817635;78;22249;-68
2021/03/12 07:38:54;;;;;;;15.55;8.90;;;;;;;-1.34;53.46;100518.66;1782891;78;22261;-68
2021/03/12 07:41:24;;;;;;;15.30;8.38;;;;;;;-1.30;53.33;100514.69;1782236;78;21169;-70
2021/03/12 07:43:54;;;;;;;16.97;8.40;;;;;;;-1.27;53.20;100522.19;1777076;79;21175;-70
2021/03/12 07:46:33;;;;;;;14.68;7.00;;;;;;;-1.25;53.49;100521.52;1774475;79;21148;-69
2021/03/12 07:49:32;;;;;;;19.12;8.70;;;;;;;-1.20;52.87;100524.90;1790586;79;21285;-70
2021/03/12 07:52:04;;;;;;;12.85;7.97;;;;;;;-1.27;52.35;100523.50;1802402;77;21156;-70
2021/03/12 07:54:44;;;;;;;15.72;8.23;;;;;;;-1.33;52.97;100496.70;1736375;80;21199;-72
2021/03/12 07:57:40;;;;;;;14.80;7.33;;;;;;;-1.36;53.18;100489.20;1760024;80;22006;-72
2021/03/12 08:00:57;;;;;;;14.13;8.13;;;;;;;-1.33;53.41;100478.36;1754728;79;23244;-69
2021/03/12 08:03:32;;;;;;;15.48;8.13;;;;;;;-1.38;53.54;100486.44;1755710;80;21280;-72
2021/03/12 08:06:22;;;;;;;12.60;7.10;;;;;;;-1.37;53.50;100471.05;1752056;79;22755;-69
2021/03/12 08:08:55;;;;;;;11.70;7.30;;;;;;;-1.40;53.73;100485.82;1728789;82;21600;-71
2021/03/12 08:11:54;;;;;;;13.78;7.85;;;;;;;-1.38;53.57;100482.03;1732274;80;21512;-71
2021/03/12 08:14:34;;;;;;;12.77;6.97;;;;;;;-1.31;53.87;100488.17;1796614;78;22681;-70
2021/03/12 08:17:10;;;;;;;15.15;7.95;;;;;;;-1.32;53.74;100472.12;1757652;80;21199;-70
2021/03/12 08:19:47;;;;;;;14.87;7.75;;;;;;;-1.29;53.69;100494.03;1765009;79;22223;-70
2021/03/12 08:22:35;;;;;;;13.72;7.47;;;;;;;-1.25;53.67;100493.16;1769844;79;21243;-70
2021/03/12 08:25:07;;;;;;;14.80;7.60;;;;;;;-1.21;53.83;100497.08;1777334;79;21195;-69
2021/03/12 08:27:54;;;;;;;16.03;8.37;;;;;;;-1.14;53.67;100503.72;1761686;79;22832;-71
2021/03/12 08:30:27;;;;;;;16.52;7.75;;;;;;;-1.17;53.53;100477.87;1732941;80;21675;-73
2021/03/12 08:32:58;;;;;;;18.37;8.90;;;;;;;-1.16;53.18;100476.86;1745766;80;21376;-71
2021/03/12 08:35:45;;;;;;;17.00;8.43;;;;;;;-1.12;53.37;100472.38;1833313;76;22260;-71
2021/03/12 08:38:35;;;;;;;14.00;7.85;;;;;;;-1.14;53.62;100463.90;1800663;79;21163;-71
2021/03/12 08:41:20;;;;;;;14.60;8.47;;;;;;;-1.09;53.44;100457.59;1834026;77;22797;-71
2021/03/12 08:43:54;;;;;;;15.03;8.33;;;;;;;-1.10;53.35;100442.06;1830027;77;21678;-70
2021/03/12 08:46:58;;;;;;;15.90;8.43;;;;;;;-0.97;53.53;100444.34;1763636;79;23046;-74
2021/03/12 08:49:29;;;;;;;17.92;8.73;;;;;;;-0.93;53.62;100442.66;1728312;82;21216;-70
2021/03/12 08:51:58;;;;;;;17.30;9.25;;;;;;;-0.85;53.28;100445.19;1731327;79;21377;-73
2021/03/12 08:54:29;;;;;;;16.75;8.63;;;;;;;-0.78;53.02;100434.27;1762211;79;21677;-71
2021/03/12 08:57:00;;;;;;;;;;;;;;;-0.73;52.69;100423.52;1761870;80;21120;-71
2021/03/12 08:59:28;;;;;;;19.02;8.43;;;;;;;-0.69;52.79;100427.08;1746949;81;21064;-70
2021/03/12 09:02:06;;;;;;;17.50;8.10;;;;;;;-0.63;52.69;100432.89;1793999;79;22838;-71
2021/03/12 09:04:37;;;;;;;14.43;7.62;;;;;;;-0.64;52.71;100425.53;1790571;79;21136;-71
2021/03/12 09:07:19;;;;;;;17.32;8.48;;;;;;;-0.58;52.55;100418.23;1711099;80;21389;-71
2021/03/12 09:09:49;;;;;;;17.42;7.95;;;;;;;-0.50;52.37;100406.78;1799138;79;21455;-71
2021/03/12 09:12:34;;;;;;;18.60;8.38;;;;;;;-0.43;52.20;100389.80;1799089;78;21203;-69
2021/03/12 09:15:45;;;;;;;16.90;8.10;;;;;;;-0.33;51.94;100401.61;1835584;77;22528;-73
2021/03/12 09:18:21;;;;;;;15.85;7.47;;;;;;;-0.33;51.94;100408.17;1754292;78;21229;-72
2021/03/12 09:21:01;;;;;;;15.50;7.97;;;;;;;-0.26;51.73;100409.03;1839522;75;22356;-71
2021/03/12 09:23:41;;;;;;;14.80;7.42;;;;;;;-0.29;51.65;100402.85;1792413;77;21183;-70
2021/03/12 09:26:22;;;;;;;14.65;7.47;;;;;;;-0.30;51.53;100394.64;1803770;77;21612;-71
2021/03/12 09:28:53;;;;;;;;;;;;;;;-0.33;51.50;100402.92;1805942;77;21255;-71
2021/03/12 09:31:39;;;;;;;14.28;7.17;;;;;;;-0.38;51.66;100392.67;1805593;77;20281;-71
2021/03/12 09:34:18;;;;;;;11.63;6.95;;;;;;;-0.41;51.92;100387.80;1802255;77;21235;-71
2021/03/12 09:37:00;;;;;;;9.70;6.13;;;;;;;-0.36;51.88;100392.80;1804016;78;23453;-70
2021/03/12 09:39:40;;;;;;;12.30;6.75;;;;;;;-0.48;51.87;100388.55;1769445;80;21177;-72
2021/03/12 09:42:20;;;;;;;19.55;9.25;;;;;;;-0.47;52.14;100395.92;1756063;79;27954;-70
2021/03/12 09:44:50;;;;;;;14.47;8.15;;;;;;;-0.47;52.11;100394.10;1729989;81;21216;-69
2021/03/12 09:47:20;;;;;;;13.80;7.62;;;;;;;-0.42;52.35;100384.88;1767669;79;22571;-71
2021/03/12 09:49:51;;;;;;;14.23;8.20;;;;;;;-0.40;52.62;100390.22;1732602;81;21176;-72
2021/03/12 09:52:21;;;;;;;13.83;7.53;;;;;;;-0.34;52.55;100386.04;1739241;81;21203;-72
2021/03/12 09:55:10;;;;;;;15.28;8.30;;;;;;;-0.27;52.78;100377.20;1820049;77;27852;-71
2021/03/12 09:57:39;;;;;;;12.00;7.03;;;;;;;-0.21;52.52;100373.02;1806530;78;21185;-71
2021/03/12 10:00:12;;;;;;;10.18;5.87;;;;;;;-0.16;52.32;100371.96;1773329;77;21817;-71
2021/03/12 10:02:54;;;;;;;9.95;6.37;;;;;;;-0.18;52.21;100382.33;1806259;78;21620;-71
2021/03/12 10:05:41;;;;;;;11.08;6.40;;;;;;;-0.21;52.47;100358.58;1805365;77;21180;-70
2021/03/12 10:08:18;;;;;;;14.75;7.67;;;;;;;-0.24;52.31;100358.45;1810012;77;21202;-71
2021/03/12 10:10:56;;;;;;;12.30;6.97;;;;;;;-0.22;52.71;100352.23;1754943;79;22800;-73
2021/03/12 10:13:28;;;;;;;13.48;7.47;;;;;;;-0.25;52.90;100358.66;1739622;80;21183;-71
2021/03/12 10:16:12;;;;;;;15.03;7.92;;;;;;;-0.29;52.94;100360.86;1731406;81;21223;-72
2021/03/12 10:19:01;;;;;;;16.37;8.13;;;;;;;-0.29;53.33;100354.30;1794779;79;23425;-71
2021/03/12 10:21:30;;;;;;;13.32;6.97;;;;;;;-0.34;53.72;100350.61;1809616;77;22080;-71
2021/03/12 10:23:58;;;;;;;15.18;7.15;;;;;;;-0.32;54.25;100334.19;1822553;76;21193;-71
2021/03/12 10:26:26;;;;;;;13.32;6.33;;;;;;;-0.33;54.91;100340.41;1796068;79;21171;-71
2021/03/12 10:28:55;;;;;;;11.38;6.55;;;;;;;-0.37;56.08;100342.61;1744003;78;21618;-71
2021/03/12 10:31:23;;;;;;;13.30;6.37;;;;;;;-0.43;57.15;100348.61;1798200;78;21179;-70
2021/03/12 10:33:51;;;;;;;11.53;6.40;;;;;;;-0.51;58.11;100350.08;1812951;77;21147;-71
2021/03/12 10:36:19;;;;;;;12.68;7.05;;;;;;;-0.61;59.03;100354.34;1804350;77;21339;-71
2021/03/12 10:38:48;;;;;;;13.95;7.75;;;;;;;-0.68;59.90;100352.66;1806878;78;21634;-71
2021/03/12 10:41:25;;;;;;;16.50;7.60;;;;;;;-0.75;60.89;100359.97;1798364;78;21159;-71
2021/03/12 10:44:02;;;;;;;15.08;6.97;;;;;;;-0.78;61.92;100347.23;1800589;78;21167;-70
2021/03/12 10:49:13;;;;;;;12.67;7.50;;;;;;;-0.86;63.86;100347.34;1771929;79;23227;-70
2021/03/12 10:51:42;;;;;;;14.00;7.40;;;;;;;-0.96;64.71;100346.84;1717178;82;21197;-69
2021/03/12 10:54:15;;;;;;;14.98;8.33;;;;;;;-0.99;65.47;100342.80;1756234;80;21207;-69
2021/03/12 10:56:47;;;;;;;12.73;7.95;;;;;;;-1.00;66.08;100352.95;1751091;80;21243;-69
2021/03/12 10:59:17;;;;;;;12.75;7.55;;;;;;;-1.00;66.61;100341.66;1746106;80;21297;-70
2021/03/12 11:01:49;;;;;;;14.80;8.38;;;;;;;-0.98;67.13;100338.37;1753473;80;21198;-69
2021/03/12 11:04:18;;;;;;;15.10;8.18;;;;;;;-0.97;67.64;100343.91;1749221;80;21195;-68
2021/03/12 11:06:48;;;;;;;13.93;8.33;;;;;;;-0.93;68.13;100335.98;1749529;80;21624;-68
2021/03/12 11:09:18;;;;;;;14.95;8.28;;;;;;;-0.93;68.35;100333.86;1750356;80;21203;-68
2021/03/12 11:11:45;;;;;;;14.87;8.35;;;;;;;-0.89;68.75;100337.22;1747732;81;21230;-68
2021/03/12 11:14:14;;;;;;;14.65;8.33;;;;;;;-0.89;69.08;100331.98;1755380;80;21655;-67
2021/03/12 11:16:41;;;;;;;17.62;10.10;;;;;;;-0.93;69.40;100337.29;1752814;80;22211;-68
2021/03/12 11:19:11;;;;;;;16.45;10.78;;;;;;;-0.97;69.62;100334.73;1750571;80;21688;-66
2021/03/12 11:21:41;;;;;;;19.17;11.22;;;;;;;-0.97;69.88;100334.73;1744458;81;21619;-69
2021/03/12 11:24:10;;;;;;;16.67;9.78;;;;;;;-0.98;70.10;100320.82;1749831;81;21244;-68
2021/03/12 11:26:42;;;;;;;16.48;10.00;;;;;;;-1.00;70.41;100316.25;1748861;80;21279;-69
2021/03/12 11:29:10;;;;;;;;;;;;;;;-1.06;70.65;100308.33;1762770;80;21172;-69
2021/03/12 11:31:41;;;;;;;20.80;10.90;;;;;;;-1.10;70.98;100320.19;1766109;80;21208;-72
2021/03/12 11:34:11;;;;;;;19.55;11.63;;;;;;;-1.15;71.31;100315.52;1763051;79;21208;-70
2021/03/12 11:36:39;;;;;;;20.08;11.25;;;;;;;-1.14;71.60;100320.25;1763155;81;21624;-70
2021/03/12 11:39:08;;;;;;;25.12;13.98;;;;;;;-1.14;71.86;100319.75;1762254;79;21717;-71
2021/03/12 11:41:37;;;;;;;18.37;10.90;;;;;;;-1.11;72.13;100312.02;1763069;81;21255;-71
2021/03/12 11:44:07;;;;;;;20.30;11.97;;;;;;;-1.01;72.37;100311.21;1755736;81;22384;-73
2021/03/12 11:46:36;;;;;;;19.55;11.28;;;;;;;-0.98;72.52;100301.66;1750570;81;21204;-73